sensor_id;sensor_type;location;lat;lon;timestamp;temperature;humidity
1383;DHT22;685;47.196;11.880;2022-12-15T00:01:02;-1.50;99.90
1383;DHT22;685;47.196;11.880;2022-12-15T00:03:47;-1.40;99.90
1383;DHT22;685;47.196;11.880;2022-12-15T00:06:32;-1.30;99.90
1383;DHT22;685;47.196;11.880;2022-12-15T00:09:16;-1.50;99.90
1383;DHT22;685;47.196;11.880;2022-12-15T00:12:00;-1.40;99.90
1383;DHT22;685;47.196;11.880;2022-12-15T00:14:45;-1.40;99.90
1383;DHT22;685;47.196;11.880;2022-12-15T00:17:30;-1.40;99.90
1383;DHT22;685;47.196;11.880;2022-12-15T00:20:14;-1.50;99.90
1383;DHT22;685;47.196;11.880;2022-12-15T00:23:06;-1.30;99.90
1383;DHT22;685;47.196;11.880;2022-12-15T00:25:50;-1.30;99.90
1383;DHT22;685;47.196;11.880;2022-12-15T00:28:35;-1.40;99.90
1383;DHT22;685;47.196;11.880;2022-12-15T00:31:20;-1.60;99.90
1383;DHT22;685;47.196;11.880;2022-12-15T00:34:05;-1.60;99.90
1383;DHT22;685;47.196;11.880;2022-12-15T00:36:49;-1.50;99.90
1383;DHT22;685;47.196;11.880;2022-12-15T00:39:33;-1.40;99.90
1383;DHT22;685;47.196;11.880;2022-12-15T00:42:00;-1.30;99.90
1383;DHT22;685;47.196;11.880;2022-12-15T00:44:27;-1.30;99.90
1383;DHT22;685;47.196;11.880;2022-12-15T00:46:55;-1.10;99.90
1383;DHT22;685;47.196;11.880;2022-12-15T00:49:22;-1.00;99.90
1383;DHT22;685;47.196;11.880;2022-12-15T00:52:07;-0.90;99.90
1383;DHT22;685;47.196;11.880;2022-12-15T00:54:51;-0.90;99.90
1383;DHT22;685;47.196;11.880;2022-12-15T00:57:35;-0.90;99.90
1383;DHT22;685;47.196;11.880;2022-12-15T01:00:19;-0.80;99.90
1383;DHT22;685;47.196;11.880;2022-12-15T01:03:11;-1.00;99.90
1383;DHT22;685;47.196;11.880;2022-12-15T01:05:55;-1.20;99.90
1383;DHT22;685;47.196;11.880;2022-12-15T01:08:40;-1.10;99.90
1383;DHT22;685;47.196;11.880;2022-12-15T01:11:24;-1.20;99.90
1383;DHT22;685;47.196;11.880;2022-12-15T01:14:08;-1.00;99.90
1383;DHT22;685;47.196;11.880;2022-12-15T01:16:52;-1.00;99.90
1383;DHT22;685;47.196;11.880;2022-12-15T01:19:37;-0.90;99.90
1383;DHT22;685;47.196;11.880;2022-12-15T01:22:22;-0.90;99.90
1383;DHT22;685;47.196;11.880;2022-12-15T01:24:49;-1.00;99.90
1383;DHT22;685;47.196;11.880;2022-12-15T01:27:16;-1.10;99.90
1383;DHT22;685;47.196;11.880;2022-12-15T01:29:43;-1.10;99.90
1383;DHT22;685;47.196;11.880;2022-12-15T01:32:11;-1.20;99.90
1383;DHT22;685;47.196;11.880;2022-12-15T01:34:39;-1.10;99.90
1383;DHT22;685;47.196;11.880;2022-12-15T01:37:06;-1.20;99.90
1383;DHT22;685;47.196;11.880;2022-12-15T01:39:33;-1.40;99.90
1383;DHT22;685;47.196;11.880;2022-12-15T01:42:13;-1.30;99.90
1383;DHT22;685;47.196;11.880;2022-12-15T01:44:40;-1.20;99.90
1383;DHT22;685;47.196;11.880;2022-12-15T01:47:10;-1.10;99.90
1383;DHT22;685;47.196;11.880;2022-12-15T01:49:41;-1.00;99.90
1383;DHT22;685;47.196;11.880;2022-12-15T01:52:14;-0.90;99.90
1383;DHT22;685;47.196;11.880;2022-12-15T01:54:45;-1.00;99.90
1383;DHT22;685;47.196;11.880;2022-12-15T01:57:18;-0.90;99.90
1383;DHT22;685;47.196;11.880;2022-12-15T01:59:48;-1.00;99.90
1383;DHT22;685;47.196;11.880;2022-12-15T02:02:18;-0.90;99.90
1383;DHT22;685;47.196;11.880;2022-12-15T02:04:47;-0.80;99.90
1383;DHT22;685;47.196;11.880;2022-12-15T02:07:16;-0.80;99.90
1383;DHT22;685;47.196;11.880;2022-12-15T02:09:45;-1.10;99.90
1383;DHT22;685;47.196;11.880;2022-12-15T02:12:20;-1.00;99.90
1383;DHT22;685;47.196;11.880;2022-12-15T02:15:01;-0.90;99.90
1383;DHT22;685;47.196;11.880;2022-12-15T02:17:36;-0.90;99.90
1383;DHT22;685;47.196;11.880;2022-12-15T02:20:42;-0.80;99.90
1383;DHT22;685;47.196;11.880;2022-12-15T02:23:51;-0.80;99.90
1383;DHT22;685;47.196;11.880;2022-12-15T02:26:43;-1.00;99.90
1383;DHT22;685;47.196;11.880;2022-12-15T02:29:28;-0.90;99.90
1383;DHT22;685;47.196;11.880;2022-12-15T02:32:06;-0.80;99.90
1383;DHT22;685;47.196;11.880;2022-12-15T02:34:40;-0.80;99.90
1383;DHT22;685;47.196;11.880;2022-12-15T02:37:13;-0.80;99.90
1383;DHT22;685;47.196;11.880;2022-12-15T02:39:42;-0.70;99.90
1383;DHT22;685;47.196;11.880;2022-12-15T02:42:10;-0.70;99.90
1383;DHT22;685;47.196;11.880;2022-12-15T02:44:40;-1.00;99.90
1383;DHT22;685;47.196;11.880;2022-12-15T02:47:30;-1.10;99.90
1383;DHT22;685;47.196;11.880;2022-12-15T02:50:18;-1.40;99.90
1383;DHT22;685;47.196;11.880;2022-12-15T02:52:58;-1.30;99.90
1383;DHT22;685;47.196;11.880;2022-12-15T02:55:32;-1.10;99.90
1383;DHT22;685;47.196;11.880;2022-12-15T02:58:04;-1.20;99.90
1383;DHT22;685;47.196;11.880;2022-12-15T03:00:37;-1.30;99.90
1383;DHT22;685;47.196;11.880;2022-12-15T03:03:08;-1.30;99.90
1383;DHT22;685;47.196;11.880;2022-12-15T03:05:35;-1.10;99.90
1383;DHT22;685;47.196;11.880;2022-12-15T03:08:02;-1.00;99.90
1383;DHT22;685;47.196;11.880;2022-12-15T03:10:29;-1.00;99.90
1383;DHT22;685;47.196;11.880;2022-12-15T03:12:56;-1.00;99.90
1383;DHT22;685;47.196;11.880;2022-12-15T03:15:24;-1.20;99.90
1383;DHT22;685;47.196;11.880;2022-12-15T03:17:51;-1.40;99.90
1383;DHT22;685;47.196;11.880;2022-12-15T03:20:19;-1.30;99.90
1383;DHT22;685;47.196;11.880;2022-12-15T03:22:46;-1.10;99.90
1383;DHT22;685;47.196;11.880;2022-12-15T03:25:13;-1.00;99.90
1383;DHT22;685;47.196;11.880;2022-12-15T03:27:40;-1.10;99.90
1383;DHT22;685;47.196;11.880;2022-12-15T03:30:07;-1.20;99.90
1383;DHT22;685;47.196;11.880;2022-12-15T03:32:34;-1.10;99.90
1383;DHT22;685;47.196;11.880;2022-12-15T03:35:01;-1.00;99.90
1383;DHT22;685;47.196;11.880;2022-12-15T03:37:29;-0.90;99.90
1383;DHT22;685;47.196;11.880;2022-12-15T03:39:56;-0.90;99.90
1383;DHT22;685;47.196;11.880;2022-12-15T03:42:23;-1.10;99.90
1383;DHT22;685;47.196;11.880;2022-12-15T03:45:05;-0.90;99.90
1383;DHT22;685;47.196;11.880;2022-12-15T03:47:32;-0.90;99.90
1383;DHT22;685;47.196;11.880;2022-12-15T03:49:58;-1.00;99.90
1383;DHT22;685;47.196;11.880;2022-12-15T03:52:25;-1.00;99.90
1383;DHT22;685;47.196;11.880;2022-12-15T03:54:53;-0.90;99.90
1383;DHT22;685;47.196;11.880;2022-12-15T03:57:20;-0.80;99.90
1383;DHT22;685;47.196;11.880;2022-12-15T03:59:47;-0.80;99.90
1383;DHT22;685;47.196;11.880;2022-12-15T04:02:14;-0.80;99.90
1383;DHT22;685;47.196;11.880;2022-12-15T04:04:41;-0.90;99.90
1383;DHT22;685;47.196;11.880;2022-12-15T04:07:08;-0.80;99.90
1383;DHT22;685;47.196;11.880;2022-12-15T04:09:35;-0.90;99.90
1383;DHT22;685;47.196;11.880;2022-12-15T04:12:03;-0.90;99.90
1383;DHT22;685;47.196;11.880;2022-12-15T04:14:30;-0.80;99.90
1383;DHT22;685;47.196;11.880;2022-12-15T04:16:57;-0.80;99.90
1383;DHT22;685;47.196;11.880;2022-12-15T04:19:24;-0.80;99.90
1383;DHT22;685;47.196;11.880;2022-12-15T04:22:09;-0.70;99.90
1383;DHT22;685;47.196;11.880;2022-12-15T04:24:35;-0.60;99.90
1383;DHT22;685;47.196;11.880;2022-12-15T04:27:21;-0.80;99.90
1383;DHT22;685;47.196;11.880;2022-12-15T04:30:06;-0.80;99.90
1383;DHT22;685;47.196;11.880;2022-12-15T04:32:51;-1.10;99.90
1383;DHT22;685;47.196;11.880;2022-12-15T04:35:35;-1.20;99.90
1383;DHT22;685;47.196;11.880;2022-12-15T04:38:20;-1.20;99.90
1383;DHT22;685;47.196;11.880;2022-12-15T04:41:05;-0.90;99.90
1383;DHT22;685;47.196;11.880;2022-12-15T04:43:50;-1.10;99.90
1383;DHT22;685;47.196;11.880;2022-12-15T04:46:35;-1.10;99.90
1383;DHT22;685;47.196;11.880;2022-12-15T04:49:19;-1.40;99.90
1383;DHT22;685;47.196;11.880;2022-12-15T04:52:03;-1.70;99.90
1383;DHT22;685;47.196;11.880;2022-12-15T04:54:47;-1.50;99.90
1383;DHT22;685;47.196;11.880;2022-12-15T04:57:31;-1.20;99.90
1383;DHT22;685;47.196;11.880;2022-12-15T05:00:17;-1.10;99.90
1383;DHT22;685;47.196;11.880;2022-12-15T05:03:03;-0.80;99.90
1383;DHT22;685;47.196;11.880;2022-12-15T05:05:48;-1.00;99.90
1383;DHT22;685;47.196;11.880;2022-12-15T05:08:32;-1.00;99.90
1383;DHT22;685;47.196;11.880;2022-12-15T05:11:16;-1.20;99.90
1383;DHT22;685;47.196;11.880;2022-12-15T05:14:00;-1.20;99.90
1383;DHT22;685;47.196;11.880;2022-12-15T05:16:46;-1.20;99.90
1383;DHT22;685;47.196;11.880;2022-12-15T05:19:30;-1.20;99.90
1383;DHT22;685;47.196;11.880;2022-12-15T05:22:14;-1.30;99.90
1383;DHT22;685;47.196;11.880;2022-12-15T05:24:59;-1.30;99.90
1383;DHT22;685;47.196;11.880;2022-12-15T05:27:43;-1.30;99.90
1383;DHT22;685;47.196;11.880;2022-12-15T05:30:27;-1.20;99.90
1383;DHT22;685;47.196;11.880;2022-12-15T05:33:12;-1.10;99.90
1383;DHT22;685;47.196;11.880;2022-12-15T05:35:39;-1.10;99.90
1383;DHT22;685;47.196;11.880;2022-12-15T05:38:06;-1.10;99.90
1383;DHT22;685;47.196;11.880;2022-12-15T05:40:33;-1.40;99.90
1383;DHT22;685;47.196;11.880;2022-12-15T05:43:00;-1.40;99.90
1383;DHT22;685;47.196;11.880;2022-12-15T05:45:27;-1.30;99.90
1383;DHT22;685;47.196;11.880;2022-12-15T05:47:54;-1.40;99.90
1383;DHT22;685;47.196;11.880;2022-12-15T05:50:23;-1.50;99.90
1383;DHT22;685;47.196;11.880;2022-12-15T05:52:50;-1.40;99.90
1383;DHT22;685;47.196;11.880;2022-12-15T05:55:17;-1.20;99.90
1383;DHT22;685;47.196;11.880;2022-12-15T05:57:49;-1.10;99.90
1383;DHT22;685;47.196;11.880;2022-12-15T06:00:16;-1.20;99.90
1383;DHT22;685;47.196;11.880;2022-12-15T06:02:43;-1.30;99.90
1383;DHT22;685;47.196;11.880;2022-12-15T06:05:10;-1.40;99.90
1383;DHT22;685;47.196;11.880;2022-12-15T06:07:38;-1.40;99.90
1383;DHT22;685;47.196;11.880;2022-12-15T06:10:05;-1.50;99.90
1383;DHT22;685;47.196;11.880;2022-12-15T06:12:32;-1.40;99.90
1383;DHT22;685;47.196;11.880;2022-12-15T06:14:59;-1.50;99.90
1383;DHT22;685;47.196;11.880;2022-12-15T06:17:26;-1.40;99.90
1383;DHT22;685;47.196;11.880;2022-12-15T06:19:53;-1.50;99.90
1383;DHT22;685;47.196;11.880;2022-12-15T06:22:20;-1.60;99.90
1383;DHT22;685;47.196;11.880;2022-12-15T06:24:48;-1.50;99.90
1383;DHT22;685;47.196;11.880;2022-12-15T06:27:15;-1.40;99.90
1383;DHT22;685;47.196;11.880;2022-12-15T06:29:42;-1.60;99.90
1383;DHT22;685;47.196;11.880;2022-12-15T06:32:09;-1.50;99.90
1383;DHT22;685;47.196;11.880;2022-12-15T06:34:36;-1.60;99.90
1383;DHT22;685;47.196;11.880;2022-12-15T06:37:03;-1.70;99.90
1383;DHT22;685;47.196;11.880;2022-12-15T06:39:30;-1.70;99.90
1383;DHT22;685;47.196;11.880;2022-12-15T06:41:58;-1.90;99.90
1383;DHT22;685;47.196;11.880;2022-12-15T06:44:25;-2.20;99.90
1383;DHT22;685;47.196;11.880;2022-12-15T06:46:51;-2.20;99.90
1383;DHT22;685;47.196;11.880;2022-12-15T06:49:18;-2.20;99.90
1383;DHT22;685;47.196;11.880;2022-12-15T06:51:47;-2.20;99.90
1383;DHT22;685;47.196;11.880;2022-12-15T06:54:14;-2.00;99.90
1383;DHT22;685;47.196;11.880;2022-12-15T06:56:41;-1.90;99.90
1383;DHT22;685;47.196;11.880;2022-12-15T06:59:10;-1.90;99.90
1383;DHT22;685;47.196;11.880;2022-12-15T07:01:38;-2.10;99.90
1383;DHT22;685;47.196;11.880;2022-12-15T07:04:06;-2.10;99.90
1383;DHT22;685;47.196;11.880;2022-12-15T07:06:34;-1.90;99.90
1383;DHT22;685;47.196;11.880;2022-12-15T07:09:02;-1.70;99.90
1383;DHT22;685;47.196;11.880;2022-12-15T07:11:28;-2.00;99.90
1383;DHT22;685;47.196;11.880;2022-12-15T07:13:55;-2.00;99.90
1383;DHT22;685;47.196;11.880;2022-12-15T07:16:23;-1.80;99.90
1383;DHT22;685;47.196;11.880;2022-12-15T07:18:51;-1.80;99.90
1383;DHT22;685;47.196;11.880;2022-12-15T07:21:18;-2.00;99.90
1383;DHT22;685;47.196;11.880;2022-12-15T07:23:45;-1.80;99.90
1383;DHT22;685;47.196;11.880;2022-12-15T07:26:12;-1.70;99.90
1383;DHT22;685;47.196;11.880;2022-12-15T07:28:39;-1.60;99.90
1383;DHT22;685;47.196;11.880;2022-12-15T07:31:08;-1.50;99.90
1383;DHT22;685;47.196;11.880;2022-12-15T07:33:37;-1.70;99.90
1383;DHT22;685;47.196;11.880;2022-12-15T07:36:05;-1.90;99.90
1383;DHT22;685;47.196;11.880;2022-12-15T07:38:33;-2.00;99.90
1383;DHT22;685;47.196;11.880;2022-12-15T07:41:01;-2.10;99.90
1383;DHT22;685;47.196;11.880;2022-12-15T07:43:28;-1.90;99.90
1383;DHT22;685;47.196;11.880;2022-12-15T07:45:55;-2.00;99.90
1383;DHT22;685;47.196;11.880;2022-12-15T07:48:22;-2.10;99.90
1383;DHT22;685;47.196;11.880;2022-12-15T07:50:50;-2.00;99.90
1383;DHT22;685;47.196;11.880;2022-12-15T07:53:22;-1.80;99.90
1383;DHT22;685;47.196;11.880;2022-12-15T07:55:53;-1.70;99.90
1383;DHT22;685;47.196;11.880;2022-12-15T07:58:20;-1.90;99.90
1383;DHT22;685;47.196;11.880;2022-12-15T08:00:47;-1.90;99.90
1383;DHT22;685;47.196;11.880;2022-12-15T08:03:14;-1.90;99.90
1383;DHT22;685;47.196;11.880;2022-12-15T08:05:40;-1.90;99.90
1383;DHT22;685;47.196;11.880;2022-12-15T08:08:09;-1.90;99.90
1383;DHT22;685;47.196;11.880;2022-12-15T08:10:38;-1.90;99.90
1383;DHT22;685;47.196;11.880;2022-12-15T08:13:05;-1.90;99.90
1383;DHT22;685;47.196;11.880;2022-12-15T08:15:34;-2.00;99.90
1383;DHT22;685;47.196;11.880;2022-12-15T08:18:02;-2.20;99.90
1383;DHT22;685;47.196;11.880;2022-12-15T08:20:28;-2.10;99.90
1383;DHT22;685;47.196;11.880;2022-12-15T08:22:56;-1.90;99.90
1383;DHT22;685;47.196;11.880;2022-12-15T08:25:24;-1.80;99.90
1383;DHT22;685;47.196;11.880;2022-12-15T08:27:53;-1.80;99.90
1383;DHT22;685;47.196;11.880;2022-12-15T08:30:20;-2.10;99.90
1383;DHT22;685;47.196;11.880;2022-12-15T08:32:48;-2.30;99.90
1383;DHT22;685;47.196;11.880;2022-12-15T08:35:16;-2.20;99.90
1383;DHT22;685;47.196;11.880;2022-12-15T08:37:42;-2.30;99.90
1383;DHT22;685;47.196;11.880;2022-12-15T08:40:10;-2.10;99.90
1383;DHT22;685;47.196;11.880;2022-12-15T08:42:39;-1.90;99.90
1383;DHT22;685;47.196;11.880;2022-12-15T08:45:06;-1.90;99.90
1383;DHT22;685;47.196;11.880;2022-12-15T08:47:33;-1.80;99.90
1383;DHT22;685;47.196;11.880;2022-12-15T08:50:00;-1.70;99.90
1383;DHT22;685;47.196;11.880;2022-12-15T08:52:27;-0.90;99.90
1383;DHT22;685;47.196;11.880;2022-12-15T08:54:54;-1.30;99.90
1383;DHT22;685;47.196;11.880;2022-12-15T08:57:21;-1.70;99.90
1383;DHT22;685;47.196;11.880;2022-12-15T08:59:49;-1.90;99.90
1383;DHT22;685;47.196;11.880;2022-12-15T09:02:16;-1.80;99.90
1383;DHT22;685;47.196;11.880;2022-12-15T09:04:43;-1.80;99.90
1383;DHT22;685;47.196;11.880;2022-12-15T09:07:10;-2.00;99.90
1383;DHT22;685;47.196;11.880;2022-12-15T09:09:38;-2.00;99.90
1383;DHT22;685;47.196;11.880;2022-12-15T09:12:05;-1.60;99.90
1383;DHT22;685;47.196;11.880;2022-12-15T09:14:32;-1.50;99.90
1383;DHT22;685;47.196;11.880;2022-12-15T09:17:00;-1.40;99.90
1383;DHT22;685;47.196;11.880;2022-12-15T09:19:28;-1.30;99.90
1383;DHT22;685;47.196;11.880;2022-12-15T09:21:54;-1.20;99.90
1383;DHT22;685;47.196;11.880;2022-12-15T09:24:21;-1.10;99.90
1383;DHT22;685;47.196;11.880;2022-12-15T09:26:49;-1.10;99.90
1383;DHT22;685;47.196;11.880;2022-12-15T09:29:16;-1.30;99.90
1383;DHT22;685;47.196;11.880;2022-12-15T09:31:43;-1.30;99.90
1383;DHT22;685;47.196;11.880;2022-12-15T09:34:13;-1.10;99.90
1383;DHT22;685;47.196;11.880;2022-12-15T09:36:41;-1.30;99.90
1383;DHT22;685;47.196;11.880;2022-12-15T09:39:08;-1.50;99.90
1383;DHT22;685;47.196;11.880;2022-12-15T09:41:37;-1.30;99.90
1383;DHT22;685;47.196;11.880;2022-12-15T09:44:09;-1.20;99.90
1383;DHT22;685;47.196;11.880;2022-12-15T09:49:52;-0.90;99.90
1383;DHT22;685;47.196;11.880;2022-12-15T09:52:21;-1.00;99.90
1383;DHT22;685;47.196;11.880;2022-12-15T09:54:49;-1.10;99.90
1383;DHT22;685;47.196;11.880;2022-12-15T09:57:23;-1.20;99.90
1383;DHT22;685;47.196;11.880;2022-12-15T10:00:09;-1.00;99.90
1383;DHT22;685;47.196;11.880;2022-12-15T10:03:01;-0.90;99.90
1383;DHT22;685;47.196;11.880;2022-12-15T10:05:39;-1.00;99.90
1383;DHT22;685;47.196;11.880;2022-12-15T10:08:08;-0.90;99.90
1383;DHT22;685;47.196;11.880;2022-12-15T10:10:39;-0.90;99.90
1383;DHT22;685;47.196;11.880;2022-12-15T10:13:13;-0.70;99.90
1383;DHT22;685;47.196;11.880;2022-12-15T10:15:46;-0.70;99.90
1383;DHT22;685;47.196;11.880;2022-12-15T10:18:20;-0.70;99.90
1383;DHT22;685;47.196;11.880;2022-12-15T10:20:51;-0.60;99.90
1383;DHT22;685;47.196;11.880;2022-12-15T10:23:19;-0.80;99.90
1383;DHT22;685;47.196;11.880;2022-12-15T10:25:48;-0.70;99.90
1383;DHT22;685;47.196;11.880;2022-12-15T10:28:31;-0.70;99.90
1383;DHT22;685;47.196;11.880;2022-12-15T10:31:17;-0.60;99.90
1383;DHT22;685;47.196;11.880;2022-12-15T10:33:49;-0.50;99.90
1383;DHT22;685;47.196;11.880;2022-12-15T10:36:20;-0.60;99.90
1383;DHT22;685;47.196;11.880;2022-12-15T10:38:48;-0.70;99.90
1383;DHT22;685;47.196;11.880;2022-12-15T10:41:16;-0.70;99.90
1383;DHT22;685;47.196;11.880;2022-12-15T10:43:46;-0.70;99.90
1383;DHT22;685;47.196;11.880;2022-12-15T10:46:14;-0.50;99.90
1383;DHT22;685;47.196;11.880;2022-12-15T10:48:45;-0.50;99.90
1383;DHT22;685;47.196;11.880;2022-12-15T10:51:24;-0.40;99.90
1383;DHT22;685;47.196;11.880;2022-12-15T10:53:53;-0.30;99.90
1383;DHT22;685;47.196;11.880;2022-12-15T10:56:30;-0.30;99.90
1383;DHT22;685;47.196;11.880;2022-12-15T10:58:59;-0.40;99.90
1383;DHT22;685;47.196;11.880;2022-12-15T11:01:29;-0.40;99.90
1383;DHT22;685;47.196;11.880;2022-12-15T11:03:56;-0.50;99.90
1383;DHT22;685;47.196;11.880;2022-12-15T11:06:27;-0.60;99.90
1383;DHT22;685;47.196;11.880;2022-12-15T11:08:56;-0.40;99.90
1383;DHT22;685;47.196;11.880;2022-12-15T11:11:26;-0.30;99.90
1383;DHT22;685;47.196;11.880;2022-12-15T11:14:14;-0.20;99.90
1383;DHT22;685;47.196;11.880;2022-12-15T11:16:49;-0.10;99.90
1383;DHT22;685;47.196;11.880;2022-12-15T11:19:26;-0.10;99.90
1383;DHT22;685;47.196;11.880;2022-12-15T11:22:02;-0.10;99.90
1383;DHT22;685;47.196;11.880;2022-12-15T11:24:35;-0.20;99.90
1383;DHT22;685;47.196;11.880;2022-12-15T11:27:11;-0.30;99.90
1383;DHT22;685;47.196;11.880;2022-12-15T11:29:53;-0.40;99.90
1383;DHT22;685;47.196;11.880;2022-12-15T11:32:25;-0.30;99.90
1383;DHT22;685;47.196;11.880;2022-12-15T11:34:53;-0.30;99.90
1383;DHT22;685;47.196;11.880;2022-12-15T11:37:36;-0.20;99.90
1383;DHT22;685;47.196;11.880;2022-12-15T11:40:16;-0.10;99.90
1383;DHT22;685;47.196;11.880;2022-12-15T11:45:40;-0.10;99.90
1383;DHT22;685;47.196;11.880;2022-12-15T11:48:12;0.00;99.90
1383;DHT22;685;47.196;11.880;2022-12-15T11:50:50;0.00;99.90
1383;DHT22;685;47.196;11.880;2022-12-15T11:53:46;0.10;99.90
1383;DHT22;685;47.196;11.880;2022-12-15T11:56:25;0.10;99.90
1383;DHT22;685;47.196;11.880;2022-12-15T11:59:05;0.10;99.90
1383;DHT22;685;47.196;11.880;2022-12-15T12:01:52;0.20;99.90
1383;DHT22;685;47.196;11.880;2022-12-15T12:04:24;0.20;99.90
1383;DHT22;685;47.196;11.880;2022-12-15T12:07:02;0.10;99.90
1383;DHT22;685;47.196;11.880;2022-12-15T12:09:35;0.10;99.90
1383;DHT22;685;47.196;11.880;2022-12-15T12:12:17;0.00;99.90
1383;DHT22;685;47.196;11.880;2022-12-15T12:14:53;0.10;99.90
1383;DHT22;685;47.196;11.880;2022-12-15T12:17:35;0.00;99.90
1383;DHT22;685;47.196;11.880;2022-12-15T12:20:12;-0.20;99.90
1383;DHT22;685;47.196;11.880;2022-12-15T12:22:42;-0.30;99.90
1383;DHT22;685;47.196;11.880;2022-12-15T12:25:16;-0.20;99.90
1383;DHT22;685;47.196;11.880;2022-12-15T12:27:48;-0.10;99.90
1383;DHT22;685;47.196;11.880;2022-12-15T12:30:19;0.00;99.90
1383;DHT22;685;47.196;11.880;2022-12-15T12:32:52;0.10;99.90
1383;DHT22;685;47.196;11.880;2022-12-15T12:35:24;0.10;99.90
1383;DHT22;685;47.196;11.880;2022-12-15T12:37:58;-0.10;99.90
1383;DHT22;685;47.196;11.880;2022-12-15T12:40:31;-0.40;99.90
1383;DHT22;685;47.196;11.880;2022-12-15T12:42:59;-0.40;99.90
1383;DHT22;685;47.196;11.880;2022-12-15T12:45:31;-0.30;99.90
1383;DHT22;685;47.196;11.880;2022-12-15T12:48:06;-0.30;99.90
1383;DHT22;685;47.196;11.880;2022-12-15T12:50:34;-0.30;99.90
1383;DHT22;685;47.196;11.880;2022-12-15T12:53:02;-0.40;99.90
1383;DHT22;685;47.196;11.880;2022-12-15T12:55:37;-0.40;99.90
1383;DHT22;685;47.196;11.880;2022-12-15T12:58:29;-0.40;99.90
1383;DHT22;685;47.196;11.880;2022-12-15T13:01:17;-0.40;99.90
1383;DHT22;685;47.196;11.880;2022-12-15T13:03:44;-0.30;99.90
1383;DHT22;685;47.196;11.880;2022-12-15T13:06:20;-0.30;99.90
1383;DHT22;685;47.196;11.880;2022-12-15T13:08:51;-0.20;99.90
1383;DHT22;685;47.196;11.880;2022-12-15T13:17:28;-0.10;99.90
1383;DHT22;685;47.196;11.880;2022-12-15T13:20:26;-0.10;99.90
1383;DHT22;685;47.196;11.880;2022-12-15T13:22:55;-0.10;99.90
1383;DHT22;685;47.196;11.880;2022-12-15T13:25:40;-0.10;99.90
1383;DHT22;685;47.196;11.880;2022-12-15T13:28:24;-0.20;99.90
1383;DHT22;685;47.196;11.880;2022-12-15T13:31:10;-0.20;99.90
1383;DHT22;685;47.196;11.880;2022-12-15T13:33:49;-0.10;99.90
1383;DHT22;685;47.196;11.880;2022-12-15T13:36:44;-0.20;99.90
1383;DHT22;685;47.196;11.880;2022-12-15T13:39:52;-0.30;99.90
1383;DHT22;685;47.196;11.880;2022-12-15T13:42:33;-0.30;99.90
1383;DHT22;685;47.196;11.880;2022-12-15T13:45:32;-0.20;99.90
1383;DHT22;685;47.196;11.880;2022-12-15T13:48:07;-0.30;99.90
1383;DHT22;685;47.196;11.880;2022-12-15T13:50:45;-0.30;99.90
1383;DHT22;685;47.196;11.880;2022-12-15T13:53:17;-0.40;99.90
1383;DHT22;685;47.196;11.880;2022-12-15T13:55:52;-0.30;99.90
1383;DHT22;685;47.196;11.880;2022-12-15T13:58:23;-0.20;99.90
1383;DHT22;685;47.196;11.880;2022-12-15T14:00:52;-0.30;99.90
1383;DHT22;685;47.196;11.880;2022-12-15T14:03:19;-0.30;99.90
1383;DHT22;685;47.196;11.880;2022-12-15T14:05:49;-0.30;99.90
1383;DHT22;685;47.196;11.880;2022-12-15T14:08:17;-0.50;99.90
1383;DHT22;685;47.196;11.880;2022-12-15T14:10:47;-0.50;99.90
1383;DHT22;685;47.196;11.880;2022-12-15T14:13:19;-0.40;99.90
1383;DHT22;685;47.196;11.880;2022-12-15T14:15:50;-0.30;99.90
1383;DHT22;685;47.196;11.880;2022-12-15T14:18:28;-0.30;99.90
1383;DHT22;685;47.196;11.880;2022-12-15T14:20:57;-0.30;99.90
1383;DHT22;685;47.196;11.880;2022-12-15T14:23:26;-0.40;99.90
1383;DHT22;685;47.196;11.880;2022-12-15T14:25:55;-0.40;99.90
1383;DHT22;685;47.196;11.880;2022-12-15T14:28:27;-0.30;99.90
1383;DHT22;685;47.196;11.880;2022-12-15T14:30:57;-0.20;99.90
1383;DHT22;685;47.196;11.880;2022-12-15T14:33:25;-0.20;99.90
1383;DHT22;685;47.196;11.880;2022-12-15T14:35:54;-0.40;99.90
1383;DHT22;685;47.196;11.880;2022-12-15T14:38:29;-0.30;99.90
1383;DHT22;685;47.196;11.880;2022-12-15T14:41:01;-0.30;99.90
1383;DHT22;685;47.196;11.880;2022-12-15T14:43:31;-0.20;99.90
1383;DHT22;685;47.196;11.880;2022-12-15T14:46:06;-0.10;99.90
1383;DHT22;685;47.196;11.880;2022-12-15T14:48:36;-0.30;99.90
1383;DHT22;685;47.196;11.880;2022-12-15T14:51:04;-0.40;99.90
1383;DHT22;685;47.196;11.880;2022-12-15T14:53:36;-0.40;99.90
1383;DHT22;685;47.196;11.880;2022-12-15T14:56:21;-0.60;99.90
1383;DHT22;685;47.196;11.880;2022-12-15T14:58:54;-0.40;99.90
1383;DHT22;685;47.196;11.880;2022-12-15T15:01:25;-0.30;99.90
1383;DHT22;685;47.196;11.880;2022-12-15T15:03:57;-0.20;99.90
1383;DHT22;685;47.196;11.880;2022-12-15T15:06:29;-0.20;99.90
1383;DHT22;685;47.196;11.880;2022-12-15T15:09:18;-0.30;99.90
1383;DHT22;685;47.196;11.880;2022-12-15T15:11:49;-0.20;99.90
1383;DHT22;685;47.196;11.880;2022-12-15T15:14:21;-0.10;99.90
1383;DHT22;685;47.196;11.880;2022-12-15T15:17:02;-0.10;99.90
1383;DHT22;685;47.196;11.880;2022-12-15T15:19:31;-0.10;99.90
1383;DHT22;685;47.196;11.880;2022-12-15T15:21:58;-0.20;99.90
1383;DHT22;685;47.196;11.880;2022-12-15T15:24:33;-0.20;99.90
1383;DHT22;685;47.196;11.880;2022-12-15T15:27:25;-0.20;99.90
1383;DHT22;685;47.196;11.880;2022-12-15T15:30:10;-0.10;99.90
1383;DHT22;685;47.196;11.880;2022-12-15T15:32:52;-0.20;99.90
1383;DHT22;685;47.196;11.880;2022-12-15T15:35:19;-0.10;99.90
1383;DHT22;685;47.196;11.880;2022-12-15T15:37:47;-0.10;99.90
1383;DHT22;685;47.196;11.880;2022-12-15T15:40:16;-0.20;99.90
1383;DHT22;685;47.196;11.880;2022-12-15T15:42:43;-0.30;99.90
1383;DHT22;685;47.196;11.880;2022-12-15T15:45:11;-0.20;99.90
1383;DHT22;685;47.196;11.880;2022-12-15T15:47:40;-0.10;99.90
1383;DHT22;685;47.196;11.880;2022-12-15T15:50:12;0.00;99.90
1383;DHT22;685;47.196;11.880;2022-12-15T15:52:40;-0.10;99.90
1383;DHT22;685;47.196;11.880;2022-12-15T15:55:11;-0.20;99.90
1383;DHT22;685;47.196;11.880;2022-12-15T15:57:40;-0.10;99.90
1383;DHT22;685;47.196;11.880;2022-12-15T16:00:18;-0.10;99.90
1383;DHT22;685;47.196;11.880;2022-12-15T16:02:46;-0.10;99.90
1383;DHT22;685;47.196;11.880;2022-12-15T16:05:14;0.10;99.90
1383;DHT22;685;47.196;11.880;2022-12-15T16:07:41;0.00;99.90
1383;DHT22;685;47.196;11.880;2022-12-15T16:10:13;0.00;99.90
1383;DHT22;685;47.196;11.880;2022-12-15T16:12:44;0.00;99.90
1383;DHT22;685;47.196;11.880;2022-12-15T16:15:14;0.00;99.90
1383;DHT22;685;47.196;11.880;2022-12-15T16:17:41;0.10;99.90
1383;DHT22;685;47.196;11.880;2022-12-15T16:20:09;0.10;99.90
1383;DHT22;685;47.196;11.880;2022-12-15T16:22:37;0.10;99.90
1383;DHT22;685;47.196;11.880;2022-12-15T16:25:05;0.10;99.90
1383;DHT22;685;47.196;11.880;2022-12-15T16:27:35;0.20;99.90
1383;DHT22;685;47.196;11.880;2022-12-15T16:30:14;0.10;99.90
1383;DHT22;685;47.196;11.880;2022-12-15T16:32:41;0.00;99.90
1383;DHT22;685;47.196;11.880;2022-12-15T16:35:08;0.00;99.90
1383;DHT22;685;47.196;11.880;2022-12-15T16:37:36;0.00;99.90
1383;DHT22;685;47.196;11.880;2022-12-15T16:40:13;0.10;99.90
1383;DHT22;685;47.196;11.880;2022-12-15T16:42:41;0.10;99.90
1383;DHT22;685;47.196;11.880;2022-12-15T16:45:17;0.20;99.90
1383;DHT22;685;47.196;11.880;2022-12-15T16:47:44;0.10;99.90
1383;DHT22;685;47.196;11.880;2022-12-15T16:50:12;0.20;99.90
1383;DHT22;685;47.196;11.880;2022-12-15T16:52:41;0.20;99.90